Time;durP1;ratioP1;P1;durP2;ratioP2;P2;SDS_P1;SDS_P2;PMS_P1;PMS_P2;Temp;Humidity;BMP_temperature;BMP_pressure;BME280_temperature;BME280_humidity;BME280_pressure;Samples;Min_cycle;Max_cycle;Signal;HPM_P1;HPM_P2
2023/01/15 00:03:08;;;;;;;1.10;0.60;;;8.40;62.00;;;;;;8333848;28;20186;-69
2023/01/15 00:07:09;;;;;;;0.80;0.47;;;8.50;65.40;;;;;;8343526;28;20213;-70
2023/01/15 00:11:10;;;;;;;1.77;0.60;;;8.40;68.80;;;;;;8337904;28;20284;-71
2023/01/15 00:15:11;;;;;;;1.47;0.90;;;8.50;67.00;;;;;;8342362;28;20181;-69
2023/01/15 00:19:13;;;;;;;0.90;0.60;;;8.40;70.60;;;;;;8340407;28;20189;-68
2023/01/15 00:27:37;;;;;;;0.83;0.40;;;8.50;73.50;;;;;;8336528;28;20240;-71
2023/01/15 00:27:37;;;;;;;0.90;0.53;;;8.50;80.50;;;;;;8335043;28;20241;-69
2023/01/15 00:31:38;;;;;;;1.80;0.83;;;8.50;81.30;;;;;;8336080;28;20208;-69
2023/01/15 00:35:39;;;;;;;0.67;0.60;;;8.40;92.80;;;;;;8333710;28;20214;-69
2023/01/15 00:39:40;;;;;;;1.63;0.70;;;8.30;99.90;;;;;;8338837;28;20265;-69
2023/01/15 00:43:41;;;;;;;1.80;0.77;;;8.30;99.90;;;;;;8335427;28;20184;-71
2023/01/15 00:47:46;;;;;;;1.00;0.70;;;8.30;99.90;;;;;;8339234;28;20209;-69
2023/01/15 00:51:48;;;;;;;1.63;0.53;;;8.20;99.90;;;;;;8339195;28;20182;-69
2023/01/15 00:55:49;;;;;;;1.90;0.77;;;8.30;99.90;;;;;;8330592;28;20559;-69
2023/01/15 00:59:50;;;;;;;2.17;1.03;;;8.40;99.90;;;;;;8332390;28;20186;-70
2023/01/15 01:03:51;;;;;;;0.80;0.70;;;8.50;99.90;;;;;;8329705;28;20178;-70
2023/01/15 01:07:52;;;;;;;1.80;0.80;;;8.50;99.90;;;;;;8333870;28;20202;-69
2023/01/15 01:11:53;;;;;;;1.90;0.57;;;8.40;99.90;;;;;;8332305;28;20204;-69
2023/01/15 01:15:54;;;;;;;0.90;0.50;;;8.40;99.90;;;;;;8330100;28;20249;-70
2023/01/15 01:19:54;;;;;;;1.43;0.80;;;8.50;99.90;;;;;;8340386;28;20182;-69
2023/01/15 01:23:57;;;;;;;0.60;0.50;;;8.50;99.90;;;;;;8330732;28;20190;-70
2023/01/15 01:27:58;;;;;;;0.70;0.60;;;8.50;99.90;;;;;;8335408;28;20210;-71
2023/01/15 01:31:59;;;;;;;1.80;0.60;;;8.60;99.90;;;;;;8333297;28;20178;-70
2023/01/15 01:36:00;;;;;;;1.07;0.70;;;8.60;99.90;;;;;;8335693;28;20201;-70
2023/01/15 01:40:01;;;;;;;1.87;0.57;;;8.60;99.90;;;;;;8334642;28;20232;-70
2023/01/15 01:44:33;;;;;;;0.80;0.50;;;8.70;99.90;;;;;;8332070;28;20197;-69
2023/01/15 01:48:34;;;;;;;0.77;0.50;;;8.70;99.90;;;;;;8331740;28;20425;-69
2023/01/15 01:52:47;;;;;;;1.17;0.70;;;8.70;99.90;;;;;;8350322;28;20403;-68
2023/01/15 01:56:49;;;;;;;1.67;0.70;;;8.60;99.90;;;;;;8328713;28;20209;-69
2023/01/15 02:00:51;;;;;;;1.33;0.60;;;8.60;99.90;;;;;;8338197;28;20239;-69
2023/01/15 02:04:52;;;;;;;1.23;0.50;;;8.50;99.90;;;;;;8334558;28;20200;-70
2023/01/15 02:08:53;;;;;;;0.60;0.50;;;8.50;99.90;;;;;;8336646;28;20277;-69
2023/01/15 02:13:23;;;;;;;1.23;0.53;;;8.50;99.90;;;;;;8333847;28;20385;-70
2023/01/15 02:17:39;;;;;;;2.50;0.70;;;8.50;99.90;;;;;;8319736;28;20194;-70
2023/01/15 02:22:03;;;;;;;1.63;0.87;;;8.50;99.90;;;;;;8328014;28;20262;-70
2023/01/15 02:26:45;;;;;;;1.43;0.73;;;8.50;99.90;;;;;;8327884;28;20197;-69
2023/01/15 02:30:56;;;;;;;1.23;0.70;;;8.50;99.90;;;;;;8329426;28;20194;-69
2023/01/15 02:35:02;;;;;;;1.10;0.60;;;8.50;99.90;;;;;;8333712;28;20232;-69
2023/01/15 02:39:07;;;;;;;0.97;0.70;;;8.50;99.90;;;;;;8333513;28;20198;-69
2023/01/15 02:43:11;;;;;;;1.10;0.73;;;8.50;99.90;;;;;;8331152;28;20273;-69
2023/01/15 02:47:14;;;;;;;0.77;0.70;;;8.40;99.90;;;;;;8326774;28;20276;-69
2023/01/15 02:51:19;;;;;;;1.70;0.90;;;8.40;99.90;;;;;;8330014;28;20178;-69
2023/01/15 02:55:25;;;;;;;1.87;0.60;;;8.30;99.90;;;;;;8330774;28;20236;-70
2023/01/15 02:59:39;;;;;;;2.17;0.80;;;8.30;99.90;;;;;;8326049;28;20186;-69
2023/01/15 03:03:49;;;;;;;1.77;0.67;;;8.30;99.90;;;;;;8334371;28;20193;-69
2023/01/15 03:08:01;;;;;;;1.27;0.80;;;8.40;99.90;;;;;;8327368;28;20210;-69
2023/01/15 03:12:28;;;;;;;1.07;0.67;;;8.40;99.90;;;;;;8326531;28;20190;-69
2023/01/15 03:16:47;;;;;;;1.53;0.70;;;8.40;99.90;;;;;;8331833;28;20188;-70
2023/01/15 03:20:52;;;;;;;2.83;0.80;;;8.50;99.90;;;;;;8337806;28;20269;-68
2023/01/15 03:25:19;;;;;;;1.47;0.80;;;8.50;99.90;;;;;;8334096;28;20210;-69
2023/01/15 03:29:24;;;;;;;0.80;0.70;;;8.50;99.90;;;;;;8333402;28;20209;-67
2023/01/15 03:33:26;;;;;;;2.20;0.90;;;8.60;99.90;;;;;;8336102;28;20188;-69
2023/01/15 03:37:27;;;;;;;0.60;0.50;;;8.60;99.90;;;;;;8339189;28;20430;-68
2023/01/15 03:41:38;;;;;;;0.93;0.60;;;8.70;99.90;;;;;;8335631;28;20259;-69
2023/01/15 03:45:42;;;;;;;0.70;0.60;;;8.70;99.90;;;;;;8339765;28;20244;-69
2023/01/15 03:49:56;;;;;;;2.03;0.90;;;8.70;1.00;;;;;;8335705;28;20202;-70
2023/01/15 03:53:59;;;;;;;1.23;0.70;;;8.70;1.00;;;;;;8336694;28;20235;-70
2023/01/15 03:58:30;;;;;;;1.33;0.57;;;8.70;6.00;;;;;;8337192;28;20192;-69
2023/01/15 04:02:31;;;;;;;1.00;0.70;;;8.60;99.90;;;;;;8318220;28;20195;-70
2023/01/15 04:06:37;;;;;;;1.60;0.80;;;8.60;99.90;;;;;;8335130;28;20210;-68
2023/01/15 04:10:49;;;;;;;2.07;0.83;;;8.50;99.90;;;;;;8348553;28;20189;-70
2023/01/15 04:14:49;;;;;;;1.53;0.70;;;8.50;99.90;;;;;;8341162;28;20183;-70
2023/01/15 04:18:51;;;;;;;0.97;0.50;;;8.40;99.90;;;;;;8340460;28;20210;-70
2023/01/15 04:22:52;;;;;;;0.80;0.70;;;8.40;1.00;;;;;;8336427;28;20182;-70
2023/01/15 04:26:52;;;;;;;0.57;0.50;;;8.40;1.00;;;;;;8332420;28;20276;-68
2023/01/15 04:30:56;;;;;;;1.10;0.67;;;8.30;1.00;;;;;;8337104;28;20675;-68
2023/01/15 04:34:57;;;;;;;1.27;0.73;;;8.40;1.00;;;;;;8334147;28;20281;-69
2023/01/15 04:38:58;;;;;;;0.93;0.60;;;8.40;1.00;;;;;;8337714;28;20206;-70
2023/01/15 04:47:19;;;;;;;1.20;0.63;;;8.40;1.00;;;;;;8335652;28;20274;-72
2023/01/15 04:51:19;;;;;;;0.50;0.40;;;8.50;71.00;;;;;;8341889;28;20178;-71
2023/01/15 04:55:20;;;;;;;0.80;0.50;;;8.50;99.90;;;;;;8331671;28;20186;-71
2023/01/15 04:59:24;;;;;;;0.70;0.43;;;8.50;99.90;;;;;;8338920;28;20182;-70
2023/01/15 05:03:28;;;;;;;3.07;0.43;;;8.50;99.90;;;;;;8335318;28;20182;-72
2023/01/15 05:07:29;;;;;;;0.80;0.50;;;8.50;99.90;;;;;;8329123;28;20214;-68
2023/01/15 05:11:30;;;;;;;0.70;0.40;;;8.50;99.90;;;;;;8341722;28;20178;-70
2023/01/15 05:15:30;;;;;;;0.53;0.40;;;8.50;1.00;;;;;;8331749;28;20188;-71
2023/01/15 05:19:31;;;;;;;1.23;0.40;;;8.60;1.00;;;;;;8338653;28;20281;-72
2023/01/15 05:23:32;;;;;;;0.70;0.40;;;8.60;1.00;;;;;;8340396;28;20189;-71
2023/01/15 05:27:33;;;;;;;0.90;0.60;;;8.60;1.00;;;;;;8337410;28;20205;-71
2023/01/15 05:31:33;;;;;;;0.80;0.40;;;8.60;99.90;;;;;;8333548;28;20171;-72
2023/01/15 05:35:34;;;;;;;0.60;0.40;;;8.60;42.10;;;;;;8340127;28;20296;-71
2023/01/15 05:39:35;;;;;;;0.83;0.50;;;8.70;88.30;;;;;;8341464;28;20259;-71
2023/01/15 05:43:36;;;;;;;0.40;0.30;;;8.70;99.90;;;;;;8339666;28;20193;-69
2023/01/15 05:47:36;;;;;;;0.60;0.40;;;8.70;99.90;;;;;;8336151;28;20233;-72
2023/01/15 05:51:39;;;;;;;0.60;0.40;;;8.70;1.00;;;;;;8331791;28;20186;-72
2023/01/15 05:55:39;;;;;;;0.90;0.33;;;8.70;1.00;;;;;;8340142;28;20196;-70
2023/01/15 05:59:40;;;;;;;0.50;0.50;;;8.70;33.40;;;;;;8333825;28;20196;-71
2023/01/15 06:03:41;;;;;;;1.73;0.40;;;8.70;99.90;;;;;;8333006;28;20181;-68
2023/01/15 06:07:42;;;;;;;0.30;0.20;;;8.70;99.90;;;;;;8331657;28;20255;-71
2023/01/15 06:11:43;;;;;;;0.80;0.40;;;8.80;72.00;;;;;;8338926;28;20193;-69
2023/01/15 06:15:44;;;;;;;1.07;0.40;;;8.80;1.00;;;;;;8329698;28;20297;-71
2023/01/15 06:19:45;;;;;;;0.50;0.40;;;8.80;1.00;;;;;;8340171;28;20252;-71
2023/01/15 06:23:46;;;;;;;0.30;0.30;;;8.90;99.90;;;;;;8337191;28;20186;-69
2023/01/15 06:27:48;;;;;;;0.80;0.50;;;8.90;99.90;;;;;;8337723;28;20211;-69
2023/01/15 06:31:48;;;;;;;1.13;0.50;;;8.90;99.90;;;;;;8331017;28;20459;-72
2023/01/15 06:35:50;;;;;;;0.40;0.30;;;8.90;99.90;;;;;;8334387;28;20210;-72
2023/01/15 06:39:50;;;;;;;0.43;0.40;;;8.80;99.90;;;;;;8326904;28;20198;-71
2023/01/15 06:48:15;;;;;;;0.30;0.20;;;8.80;1.00;;;;;;8328186;28;20228;-72
2023/01/15 06:52:16;;;;;;;0.40;0.23;;;8.80;1.00;;;;;;8328119;28;20638;-72
2023/01/15 06:56:17;;;;;;;0.30;0.27;;;8.70;1.00;;;;;;8336475;28;20218;-70
2023/01/15 07:00:18;;;;;;;0.53;0.30;;;8.70;99.90;;;;;;8338121;28;20188;-72
2023/01/15 07:04:19;;;;;;;0.30;0.17;;;8.70;99.90;;;;;;8337378;28;20358;-72
2023/01/15 07:08:20;;;;;;;0.50;0.30;;;8.70;99.90;;;;;;8337416;28;20240;-70
2023/01/15 07:12:21;;;;;;;0.33;0.20;;;8.70;99.90;;;;;;8333574;28;20189;-72
2023/01/15 07:16:28;;;;;;;0.40;0.30;;;8.70;99.90;;;;;;8330352;28;20190;-70
2023/01/15 07:20:29;;;;;;;0.37;0.27;;;8.80;24.20;;;;;;8335613;28;20420;-70
2023/01/15 07:24:29;;;;;;;0.40;0.30;;;8.80;1.00;;;;;;8328433;28;20239;-70
2023/01/15 07:28:30;;;;;;;0.40;0.40;;;8.80;1.00;;;;;;8332504;28;20214;-70
2023/01/15 07:32:31;;;;;;;1.37;0.40;;;8.80;1.00;;;;;;8330726;28;20206;-71
2023/01/15 07:36:32;;;;;;;0.30;0.30;;;8.80;1.00;;;;;;8332152;28;20206;-70
2023/01/15 07:40:33;;;;;;;0.83;0.30;;;8.80;1.00;;;;;;8334494;28;20323;-70
2023/01/15 07:53:12;;;;;;;0.60;0.30;;;8.90;99.90;;;;;;8328643;28;20239;-70
2023/01/15 07:57:16;;;;;;;0.50;0.40;;;8.90;99.90;;;;;;8335289;28;20186;-70
2023/01/15 08:01:17;;;;;;;0.40;0.30;;;9.00;99.90;;;;;;8333758;28;20197;-70
2023/01/15 08:05:19;;;;;;;1.00;0.30;;;9.10;99.90;;;;;;8335415;28;20178;-70
2023/01/15 08:09:20;;;;;;;0.60;0.20;;;9.20;1.00;;;;;;8336342;28;20450;-71
2023/01/15 08:17:45;;;;;;;0.37;0.20;;;9.40;1.00;;;;;;8339954;28;20194;-70
2023/01/15 08:21:46;;;;;;;1.07;0.30;;;9.40;1.00;;;;;;8336679;28;20192;-69
2023/01/15 08:25:47;;;;;;;0.30;0.20;;;9.50;99.90;;;;;;8334885;28;20203;-70
2023/01/15 08:29:48;;;;;;;0.50;0.30;;;9.60;99.90;;;;;;8340877;28;20260;-71
2023/01/15 08:33:49;;;;;;;0.43;0.30;;;9.70;99.90;;;;;;8332614;28;20206;-70
2023/01/15 08:37:50;;;;;;;0.90;0.30;;;9.80;99.90;;;;;;8335004;28;20210;-71
2023/01/15 08:41:51;;;;;;;0.60;0.30;;;9.90;99.90;;;;;;8335025;28;20351;-71
2023/01/15 08:45:52;;;;;;;0.57;0.40;;;9.90;99.90;;;;;;8338410;28;20218;-71
2023/01/15 08:49:53;;;;;;;0.73;0.40;;;10.00;99.90;;;;;;8335357;28;20247;-71
2023/01/15 08:53:54;;;;;;;1.07;0.60;;;10.10;99.90;;;;;;8340272;28;20181;-71
2023/01/15 08:57:55;;;;;;;0.50;0.40;;;10.20;99.90;;;;;;8336000;28;20202;-71
2023/01/15 09:01:56;;;;;;;0.87;0.50;;;10.20;99.90;;;;;;8341270;28;20194;-71
2023/01/15 09:05:58;;;;;;;1.17;0.43;;;10.30;99.90;;;;;;8337891;28;20360;-71
2023/01/15 09:09:59;;;;;;;1.43;0.53;;;10.30;99.90;;;;;;8338936;28;20185;-72
2023/01/15 09:14:00;;;;;;;1.10;0.73;;;10.40;99.90;;;;;;8336359;28;20247;-71
2023/01/15 09:18:00;;;;;;;1.40;0.83;;;10.40;99.90;;;;;;8339177;28;20243;-71
2023/01/15 09:22:01;;;;;;;1.13;0.70;;;10.50;99.90;;;;;;8342123;28;20200;-72
2023/01/15 09:26:05;;;;;;;1.43;0.80;;;10.50;99.90;;;;;;8337735;28;20263;-71
2023/01/15 09:30:20;;;;;;;0.70;0.60;;;10.60;99.90;;;;;;8335478;28;20223;-72
2023/01/15 09:34:21;;;;;;;0.80;0.60;;;10.50;99.90;;;;;;8333770;28;20210;-72
2023/01/15 09:38:22;;;;;;;1.27;0.90;;;10.40;99.90;;;;;;8330521;28;20301;-71
2023/01/15 09:42:43;;;;;;;1.30;0.50;;;9.00;99.90;;;;;;8338066;28;20379;-71
2023/01/15 09:47:14;;;;;;;0.83;0.63;;;7.50;1.00;;;;;;8324748;28;20226;-71
2023/01/15 09:51:21;;;;;;;1.67;1.00;;;6.50;99.90;;;;;;8330450;28;20195;-70
2023/01/15 09:55:31;;;;;;;0.70;0.70;;;6.20;99.90;;;;;;8337103;28;20209;-72
2023/01/15 09:59:36;;;;;;;1.10;0.80;;;6.00;1.00;;;;;;8327259;28;20194;-71
2023/01/15 10:03:40;;;;;;;1.80;1.10;;;5.70;24.20;;;;;;8334184;28;20317;-71
2023/01/15 10:08:10;;;;;;;3.90;1.33;;;5.60;99.90;;;;;;8331488;28;20209;-71
2023/01/15 10:16:34;;;;;;;2.20;1.80;;;5.40;99.90;;;;;;8331542;28;20223;-71
2023/01/15 10:20:41;;;;;;;5.30;2.30;;;5.40;99.90;;;;;;8330741;28;20205;-71
2023/01/15 10:24:54;;;;;;;2.17;0.90;;;5.40;30.90;;;;;;8331392;28;20316;-71
2023/01/15 10:29:05;;;;;;;2.50;0.80;;;5.40;99.90;;;;;;8333919;28;20537;-71
2023/01/15 10:33:43;;;;;;;1.93;0.80;;;5.30;1.00;;;;;;8334908;28;20358;-71
2023/01/15 10:38:08;;;;;;;2.70;1.07;;;5.20;1.00;;;;;;8329805;28;20214;-69
2023/01/15 10:42:34;;;;;;;2.97;1.30;;;5.10;68.00;;;;;;8324116;28;20312;-69
2023/01/15 10:46:39;;;;;;;2.57;1.13;;;5.10;1.00;;;;;;8329804;28;20209;-71
2023/01/15 10:50:41;;;;;;;3.33;0.90;;;5.10;46.60;;;;;;8337681;28;20747;-69
2023/01/15 10:54:52;;;;;;;2.33;1.07;;;5.10;99.90;;;;;;8335374;28;20187;-70
2023/01/15 10:59:17;;;;;;;1.80;1.00;;;5.00;99.90;;;;;;8328178;28;20194;-70
2023/01/15 11:03:31;;;;;;;2.20;1.10;;;5.10;1.00;;;;;;8338547;28;20202;-68
2023/01/15 11:07:42;;;;;;;1.83;0.70;;;5.00;99.90;;;;;;8334663;28;20218;-70
2023/01/15 11:20:34;;;;;;;1.30;0.50;;;5.00;99.90;;;;;;8329955;28;20267;-68
2023/01/15 11:24:50;;;;;;;0.63;0.53;;;5.00;99.90;;;;;;8327986;28;20198;-68
2023/01/15 11:28:52;;;;;;;1.63;0.70;;;5.00;99.90;;;;;;8332209;28;20230;-68
2023/01/15 11:32:58;;;;;;;1.07;0.50;;;5.00;38.70;;;;;;8332670;28;20190;-68
2023/01/15 11:37:04;;;;;;;1.67;0.50;;;5.00;99.90;;;;;;8335331;28;20229;-69
2023/01/15 11:41:05;;;;;;;2.03;0.77;;;5.10;99.90;;;;;;8339392;28;20186;-68
2023/01/15 11:54:01;;;;;;;0.90;0.50;;;5.20;99.90;;;;;;8336492;28;20235;-68
2023/01/15 11:58:02;;;;;;;1.13;0.60;;;5.30;99.90;;;;;;8335756;28;20199;-68
2023/01/15 12:02:42;;;;;;;1.60;0.30;;;5.30;99.90;;;;;;8337158;28;20634;-68
2023/01/15 12:06:43;;;;;;;0.60;0.60;;;5.50;99.90;;;;;;8335686;28;20297;-69
2023/01/15 12:11:04;;;;;;;0.87;0.53;;;5.50;99.90;;;;;;8340048;28;20195;-69
2023/01/15 12:15:24;;;;;;;0.70;0.70;;;5.60;99.90;;;;;;8342979;28;20174;-68
2023/01/15 12:19:47;;;;;;;1.13;0.80;;;5.70;99.90;;;;;;8331307;28;20244;-67
2023/01/15 12:24:00;;;;;;;1.13;0.70;;;5.70;1.00;;;;;;8340994;28;20740;-68
2023/01/15 12:28:24;;;;;;;0.83;0.60;;;5.70;1.00;;;;;;8335063;28;20214;-68
2023/01/15 12:32:41;;;;;;;4.10;1.10;;;5.70;1.00;;;;;;8334359;28;20185;-68
2023/01/15 12:36:50;;;;;;;1.00;0.70;;;5.90;99.90;;;;;;8333229;28;20205;-68
2023/01/15 12:40:59;;;;;;;1.20;0.70;;;5.90;99.90;;;;;;8329358;28;20663;-68
2023/01/15 12:45:20;;;;;;;0.97;0.73;;;5.90;1.00;;;;;;8329266;28;20200;-68
2023/01/15 12:49:35;;;;;;;2.43;0.60;;;6.00;1.00;;;;;;8327222;28;20197;-68
2023/01/15 12:54:14;;;;;;;1.20;0.50;;;6.00;1.00;;;;;;8333370;28;20182;-68
2023/01/15 12:58:26;;;;;;;0.97;0.70;;;6.00;99.90;;;;;;8325739;28;20207;-68
2023/01/15 13:02:47;;;;;;;0.90;0.60;;;6.00;1.00;;;;;;8341929;28;20273;-69
2023/01/15 13:06:53;;;;;;;0.73;0.53;;;5.90;1.00;;;;;;8350003;28;20213;-69
2023/01/15 13:10:53;;;;;;;0.70;0.57;;;5.90;1.00;;;;;;8322653;28;20190;-69
2023/01/15 13:14:54;;;;;;;0.83;0.80;;;5.80;1.00;;;;;;8334597;28;20490;-69
2023/01/15 13:19:16;;;;;;;1.17;0.60;;;5.90;1.00;;;;;;8338530;28;20316;-70
2023/01/15 13:23:49;;;;;;;0.90;0.60;;;5.90;99.90;;;;;;8333629;28;20185;-70
2023/01/15 13:27:59;;;;;;;0.90;0.60;;;6.00;99.90;;;;;;8335944;28;20336;-69
2023/01/15 13:32:10;;;;;;;1.13;0.70;;;6.00;99.90;;;;;;8330515;28;20641;-69
2023/01/15 13:36:25;;;;;;;2.20;1.00;;;6.00;99.90;;;;;;8338249;28;20206;-69
2023/01/15 13:40:34;;;;;;;1.73;0.90;;;6.00;99.90;;;;;;8331227;28;20597;-69
2023/01/15 13:44:48;;;;;;;2.33;1.43;;;5.90;99.90;;;;;;8331308;28;20182;-69
2023/01/15 13:48:51;;;;;;;1.93;1.23;;;5.90;1.00;;;;;;8337407;28;20244;-69
2023/01/15 13:53:22;;;;;;;4.83;1.80;;;5.90;42.00;;;;;;8332032;28;20185;-70
2023/01/15 13:57:32;;;;;;;6.03;2.73;;;5.90;91.90;;;;;;8331266;28;20194;-70
2023/01/15 14:01:35;;;;;;;4.87;3.10;;;5.90;1.00;;;;;;8332581;28;20807;-69
2023/01/15 14:05:39;;;;;;;4.67;3.20;;;5.80;1.00;;;;;;8348502;28;20186;-69
2023/01/15 14:09:40;;;;;;;3.80;2.93;;;5.80;99.90;;;;;;8330324;28;20186;-69
2023/01/15 14:14:06;;;;;;;3.07;2.30;;;5.70;99.90;;;;;;8330120;28;20190;-69
2023/01/15 14:18:23;;;;;;;3.03;1.90;;;5.70;99.90;;;;;;8327287;28;20178;-70
2023/01/15 14:22:55;;;;;;;2.60;1.90;;;5.60;1.00;;;;;;8326075;28;20289;-69
2023/01/15 14:27:10;;;;;;;2.50;1.67;;;5.60;1.00;;;;;;8329189;28;20218;-70
2023/01/15 14:31:20;;;;;;;3.10;1.73;;;5.50;1.00;;;;;;8329092;28;20259;-69
2023/01/15 14:35:23;;;;;;;3.03;1.80;;;5.40;92.20;;;;;;8335274;28;20218;-70
2023/01/15 14:39:32;;;;;;;3.27;1.80;;;5.40;99.90;;;;;;8331706;28;20197;-69
2023/01/15 14:43:40;;;;;;;4.13;1.60;;;5.30;99.90;;;;;;8330994;28;20175;-69
2023/01/15 14:47:45;;;;;;;2.10;1.20;;;5.20;99.90;;;;;;8344868;28;20222;-69
2023/01/15 14:51:48;;;;;;;2.47;1.60;;;5.20;1.00;;;;;;8338324;28;20213;-69
2023/01/15 14:56:19;;;;;;;2.40;1.63;;;5.10;33.40;;;;;;8330287;28;20203;-68
2023/01/15 15:00:22;;;;;;;2.27;1.47;;;5.10;1.00;;;;;;8331516;28;20194;-68
2023/01/15 15:04:38;;;;;;;2.80;1.80;;;5.10;1.00;;;;;;8331293;28;20228;-70
2023/01/15 15:08:41;;;;;;;2.67;1.33;;;5.10;1.00;;;;;;8338741;28;20202;-69
2023/01/15 15:12:58;;;;;;;1.90;1.40;;;5.10;69.80;;;;;;8333833;28;20182;-69
2023/01/15 15:17:03;;;;;;;2.27;1.53;;;5.00;7.70;;;;;;8337172;28;20388;-69
2023/01/15 15:21:06;;;;;;;2.50;1.60;;;5.00;99.90;;;;;;8325044;28;20216;-70
2023/01/15 15:25:11;;;;;;;2.47;1.90;;;5.00;99.90;;;;;;8332191;28;20190;-72
2023/01/15 15:29:14;;;;;;;2.43;1.63;;;5.00;99.90;;;;;;8330168;28;20365;-70
2023/01/15 15:33:20;;;;;;;3.00;1.60;;;5.10;1.00;;;;;;8334339;28;20221;-70
2023/01/15 15:37:26;;;;;;;2.43;1.43;;;5.10;99.90;;;;;;8330934;28;20245;-70
2023/01/15 15:50:25;;;;;;;3.73;2.23;;;4.90;1.00;;;;;;8336776;28;20240;-71
2023/01/15 15:54:31;;;;;;;3.07;1.80;;;4.90;99.90;;;;;;8338802;28;20175;-71
2023/01/15 15:58:36;;;;;;;3.53;2.10;;;4.80;99.90;;;;;;8341736;28;20182;-71
2023/01/15 16:02:40;;;;;;;4.40;2.90;;;4.70;99.90;;;;;;8338050;28;20258;-70
2023/01/15 16:06:41;;;;;;;3.27;2.50;;;4.60;99.90;;;;;;8337464;28;20206;-70
2023/01/15 16:10:42;;;;;;;4.43;2.50;;;4.60;1.00;;;;;;8336183;28;20174;-71
2023/01/15 16:14:44;;;;;;;4.20;2.87;;;4.50;1.00;;;;;;8338247;28;20189;-72
2023/01/15 16:18:48;;;;;;;5.60;2.93;;;4.50;41.90;;;;;;8336247;28;20482;-71
2023/01/15 16:23:00;;;;;;;5.07;3.20;;;4.40;99.90;;;;;;8338429;28;20190;-71
2023/01/15 16:27:07;;;;;;;5.57;3.40;;;4.40;99.90;;;;;;8346097;28;20309;-72
2023/01/15 16:31:11;;;;;;;5.33;3.60;;;4.30;99.90;;;;;;8354848;28;20213;-72
2023/01/15 16:35:22;;;;;;;6.60;3.43;;;4.30;99.90;;;;;;8341803;28;20206;-72
2023/01/15 16:39:44;;;;;;;4.67;3.10;;;4.30;99.90;;;;;;8336702;28;20204;-69
2023/01/15 16:43:53;;;;;;;5.87;3.23;;;4.30;99.90;;;;;;8334251;28;20200;-70
2023/01/15 16:48:28;;;;;;;4.40;3.40;;;4.30;99.90;;;;;;8337588;28;20210;-70
2023/01/15 16:52:49;;;;;;;5.43;3.23;;;4.30;1.00;;;;;;8338560;28;20209;-70
2023/01/15 16:56:53;;;;;;;5.57;3.50;;;4.30;99.90;;;;;;8345000;28;20182;-70
2023/01/15 17:00:55;;;;;;;4.80;3.13;;;4.30;99.90;;;;;;8336367;28;20194;-73
2023/01/15 17:04:56;;;;;;;4.80;2.70;;;4.20;99.90;;;;;;8344850;28;20175;-70
2023/01/15 17:08:58;;;;;;;5.07;2.83;;;4.20;4.50;;;;;;8344853;28;20210;-70
2023/01/15 17:12:59;;;;;;;5.43;3.13;;;4.10;7.90;;;;;;8341265;28;21054;-71
2023/01/15 17:17:21;;;;;;;4.27;3.00;;;4.20;1.00;;;;;;8335538;28;20190;-69
2023/01/15 17:21:27;;;;;;;4.87;2.97;;;4.20;1.00;;;;;;8340920;28;20189;-71
2023/01/15 17:25:32;;;;;;;5.10;2.60;;;4.20;99.90;;;;;;8340205;28;20183;-71
2023/01/15 17:29:33;;;;;;;6.43;3.60;;;4.10;99.90;;;;;;8338752;28;20184;-71
2023/01/15 17:33:34;;;;;;;5.87;3.90;;;4.10;99.90;;;;;;8340333;28;20185;-70
2023/01/15 17:37:34;;;;;;;8.37;4.07;;;4.00;99.90;;;;;;8334180;28;20210;-70
2023/01/15 17:41:36;;;;;;;10.67;4.30;;;3.90;99.90;;;;;;8343326;28;20276;-70
2023/01/15 17:45:37;;;;;;;8.10;3.63;;;3.80;99.90;;;;;;8339394;28;20190;-70
2023/01/15 17:49:38;;;;;;;5.40;2.97;;;3.80;99.90;;;;;;8338934;28;20180;-70
2023/01/15 17:53:40;;;;;;;4.30;2.90;;;3.80;99.90;;;;;;8336844;28;20458;-69
2023/01/15 18:06:23;;;;;;;3.00;2.30;;;4.00;1.00;;;;;;8334459;28;20426;-71
2023/01/15 18:10:24;;;;;;;4.47;2.20;;;4.00;45.10;;;;;;8330144;28;20179;-71
2023/01/15 18:14:25;;;;;;;4.50;2.17;;;3.90;99.90;;;;;;8338775;28;20285;-69
2023/01/15 18:18:26;;;;;;;4.20;2.47;;;3.80;99.90;;;;;;8335248;28;20209;-71
2023/01/15 18:22:28;;;;;;;4.03;1.80;;;3.80;99.90;;;;;;8339288;28;20186;-71
2023/01/15 18:26:29;;;;;;;4.07;1.73;;;3.80;99.90;;;;;;8332129;28;20245;-71
2023/01/15 18:30:31;;;;;;;3.90;1.73;;;3.80;1.00;;;;;;8337918;28;20189;-71
2023/01/15 18:34:32;;;;;;;4.37;1.87;;;3.80;1.00;;;;;;8333156;28;20260;-71
2023/01/15 18:38:37;;;;;;;4.07;1.90;;;3.70;1.00;;;;;;8330480;28;20243;-69
2023/01/15 18:47:01;;;;;;;3.53;1.60;;;3.60;1.00;;;;;;8329849;28;20218;-70
2023/01/15 18:51:08;;;;;;;2.83;1.57;;;3.60;1.00;;;;;;8337247;28;20187;-69
2023/01/15 18:55:09;;;;;;;2.97;1.63;;;3.60;99.90;;;;;;8332668;28;20174;-71
2023/01/15 18:59:14;;;;;;;3.07;1.67;;;3.40;99.90;;;;;;8338940;28;20194;-72
2023/01/15 19:03:15;;;;;;;2.30;1.37;;;3.30;99.90;;;;;;8331851;28;20254;-73
2023/01/15 19:07:16;;;;;;;2.17;1.43;;;3.30;99.90;;;;;;8337549;28;20201;-70
2023/01/15 19:11:17;;;;;;;3.23;1.37;;;3.30;99.90;;;;;;8334779;28;20180;-72
2023/01/15 19:19:43;;;;;;;2.23;1.10;;;3.30;99.90;;;;;;8335376;28;20242;-71
2023/01/15 19:23:44;;;;;;;3.17;1.47;;;3.20;99.90;;;;;;8330019;28;20295;-69
2023/01/15 19:27:47;;;;;;;2.00;1.17;;;3.20;99.90;;;;;;8331955;28;20228;-68
2023/01/15 19:31:47;;;;;;;2.47;1.40;;;3.20;99.90;;;;;;8328308;28;20186;-70
2023/01/15 19:35:52;;;;;;;2.80;1.20;;;3.20;99.90;;;;;;8330038;28;20206;-70
2023/01/15 19:39:53;;;;;;;2.07;1.10;;;3.20;99.90;;;;;;8329442;28;20659;-70
2023/01/15 19:52:35;;;;;;;1.73;1.23;;;3.10;99.90;;;;;;8333363;28;20257;-72
2023/01/15 19:56:36;;;;;;;2.63;1.20;;;3.10;99.90;;;;;;8329983;28;20209;-71
2023/01/15 20:00:38;;;;;;;2.77;1.20;;;3.10;99.90;;;;;;8336149;28;20183;-70
2023/01/15 20:04:39;;;;;;;3.03;1.60;;;3.10;99.90;;;;;;8336187;28;20181;-71
2023/01/15 20:08:40;;;;;;;2.80;1.10;;;3.10;99.90;;;;;;8341852;28;20246;-69
2023/01/15 20:17:01;;;;;;;1.73;0.90;;;3.00;99.90;;;;;;8335780;28;20317;-71
2023/01/15 20:21:02;;;;;;;2.20;1.30;;;2.90;99.90;;;;;;8343270;28;20191;-69
2023/01/15 20:25:04;;;;;;;2.17;1.33;;;2.80;99.90;;;;;;8338600;28;20182;-69
2023/01/15 20:29:05;;;;;;;2.00;1.10;;;2.80;99.90;;;;;;8340848;28;20264;-71
2023/01/15 20:33:07;;;;;;;1.60;0.90;;;2.80;99.90;;;;;;8337537;28;20777;-72
2023/01/15 20:37:09;;;;;;;2.43;1.20;;;2.80;99.90;;;;;;8331701;28;20248;-69
2023/01/15 20:45:29;;;;;;;2.90;1.13;;;2.80;99.90;;;;;;8333401;28;20189;-69
2023/01/15 20:49:31;;;;;;;2.57;1.17;;;2.80;99.90;;;;;;8335338;28;20206;-71
2023/01/15 20:53:33;;;;;;;2.40;1.20;;;2.80;99.90;;;;;;8342629;28;20186;-69
2023/01/15 20:57:39;;;;;;;2.17;1.10;;;2.70;99.90;;;;;;8335813;28;20334;-70
2023/01/15 21:01:39;;;;;;;1.67;0.93;;;2.70;99.90;;;;;;8336076;28;20270;-70
2023/01/15 21:05:40;;;;;;;2.83;1.00;;;2.70;99.90;;;;;;8334696;28;20182;-70
2023/01/15 21:09:41;;;;;;;2.40;1.23;;;2.60;99.90;;;;;;8338092;28;20186;-69
2023/01/15 21:13:44;;;;;;;1.57;0.87;;;2.60;99.90;;;;;;8340615;28;20182;-69
2023/01/15 21:17:46;;;;;;;2.47;1.30;;;2.60;99.90;;;;;;8337409;28;20186;-70
2023/01/15 21:21:46;;;;;;;1.77;0.90;;;2.60;99.90;;;;;;8336397;28;20238;-71
2023/01/15 21:25:48;;;;;;;1.10;0.90;;;2.60;99.90;;;;;;8340756;28;20195;-70
2023/01/15 21:29:49;;;;;;;1.10;0.60;;;2.50;99.90;;;;;;8334903;28;20186;-70
2023/01/15 21:33:54;;;;;;;4.20;1.30;;;2.50;99.90;;;;;;8337202;28;20224;-70
2023/01/15 21:37:55;;;;;;;1.60;0.97;;;2.50;99.90;;;;;;8330545;28;20297;-69
2023/01/15 21:46:15;;;;;;;1.43;0.80;;;2.50;99.90;;;;;;8333982;28;20216;-69
2023/01/15 21:50:17;;;;;;;2.33;0.87;;;2.50;99.90;;;;;;8332924;28;20290;-68
2023/01/15 21:54:18;;;;;;;1.60;0.80;;;2.50;99.90;;;;;;8327901;28;20182;-72
2023/01/15 21:58:19;;;;;;;2.40;0.80;;;2.50;99.90;;;;;;8338465;28;20234;-69
2023/01/15 22:02:20;;;;;;;2.23;0.70;;;2.60;99.90;;;;;;8338248;28;20410;-70
2023/01/15 22:06:21;;;;;;;1.47;0.90;;;2.60;99.90;;;;;;8337591;28;20241;-70
2023/01/15 22:10:22;;;;;;;1.90;0.90;;;2.60;99.90;;;;;;8328967;28;20185;-70
2023/01/15 22:14:26;;;;;;;1.83;0.90;;;2.60;99.90;;;;;;8332368;28;20302;-71
2023/01/15 22:18:27;;;;;;;2.27;0.90;;;2.60;99.90;;;;;;8337090;28;20186;-70
2023/01/15 22:22:32;;;;;;;2.20;0.70;;;2.60;99.90;;;;;;8333856;28;20220;-69
2023/01/15 22:26:34;;;;;;;1.93;0.80;;;2.50;99.90;;;;;;8333787;28;20245;-70
2023/01/15 22:30:37;;;;;;;1.20;0.90;;;2.50;99.90;;;;;;8335861;28;20186;-69
2023/01/15 22:34:38;;;;;;;2.87;0.80;;;2.50;99.90;;;;;;8328014;28;20198;-69
2023/01/15 22:38:39;;;;;;;3.53;0.90;;;2.40;99.90;;;;;;8329860;28;20285;-70
2023/01/15 22:42:40;;;;;;;1.00;0.70;;;2.40;99.90;;;;;;8332330;28;20265;-68
2023/01/15 22:46:41;;;;;;;1.20;0.77;;;2.30;99.90;;;;;;8332803;28;20209;-68
2023/01/15 22:50:42;;;;;;;2.60;0.90;;;2.30;99.90;;;;;;8335629;28;20178;-70
2023/01/15 22:54:44;;;;;;;2.00;0.90;;;2.30;99.90;;;;;;8334337;28;20190;-68
2023/01/15 22:58:44;;;;;;;3.10;0.83;;;2.40;99.90;;;;;;8336989;28;20182;-70
2023/01/15 23:02:54;;;;;;;1.70;0.70;;;2.50;99.90;;;;;;8329433;28;20225;-68
2023/01/15 23:06:55;;;;;;;2.10;0.50;;;2.50;99.90;;;;;;8329217;28;20199;-70
2023/01/15 23:10:57;;;;;;;1.77;0.70;;;2.40;99.90;;;;;;8329269;28;20236;-70